Dades meteomassalio
Diari Summary for Abril 2, 2017 Units:  Metric    English   Both
« Previous Day
Next Day »
Diari Semanal Mensual Anual Personalitzat
  Maxima: Minima: Mijana:
Temperatura: 11.7 °C 8.4 °C 9.4 °C
Rosada: 4.5 °C 3.6 °C 3.9 °C
Humitat: 73 % 58 % 69 %
Velocitat del vent: 57.9 km/h 14.8 km/h 26.6 km/h
Racha vent: 57.9 km/h - -
Vent:- - WNW
Pressio: 1022.9 hPa 1019.5 hPa -
Pluja: 0.0 mm    
Historical Graphs
 
 
Tabular Data for Abril 2, 2017
Time Temperature Dew Point Pressure Wind Wind Speed Wind Gust Humidity Rainfall Rate (Hourly) solar Conditions
00:04 10.6 °C 4.3 °C 1021.2 hPa WNW 18.5 km/h 18.5 km/h 65 % 0.0 mm 0.0 W/m2 RA
00:09 10.6 °C 4.4 °C 1021.2 hPa West 20.9 km/h 20.9 km/h 66 % 0.0 mm 0.0 W/m2 CLR
00:14 10.4 °C 4.3 °C 1021.2 hPa West 22.2 km/h 22.2 km/h 66 % 0.0 mm 0.0 W/m2 CLR
00:19 10.3 °C 4.4 °C 1021.2 hPa WNW 18.5 km/h 18.5 km/h 67 % 0.0 mm 0.0 W/m2 CLR
00:24 10.2 °C 4.5 °C 1021.2 hPa West 24.1 km/h 24.1 km/h 68 % 0.0 mm 0.0 W/m2 CLR
00:29 10.1 °C 4.4 °C 1021.2 hPa West 20.4 km/h 20.4 km/h 68 % 0.0 mm 0.0 W/m2 CLR
00:34 10.1 °C 4.4 °C 1021.2 hPa West 31.5 km/h 31.5 km/h 68 % 0.0 mm 0.0 W/m2 CLR
00:39 10.1 °C 4.4 °C 1021.2 hPa West 22.2 km/h 22.2 km/h 68 % 0.0 mm 0.0 W/m2 CLR
00:44 10.1 °C 4.4 °C 1020.9 hPa West 24.1 km/h 24.1 km/h 68 % 0.0 mm 0.0 W/m2 CLR
00:49 10.0 °C 4.3 °C 1021.2 hPa West 24.1 km/h 24.1 km/h 68 % 0.0 mm 0.0 W/m2 CLR
00:54 9.9 °C 4.3 °C 1021.2 hPa WNW 18.5 km/h 18.5 km/h 68 % 0.0 mm 0.0 W/m2 CLR
00:59 9.8 °C 4.2 °C 1021.2 hPa WNW 22.2 km/h 22.2 km/h 68 % 0.0 mm 0.0 W/m2 CLR
01:04 9.7 °C 4.1 °C 1021.2 hPa WNW 27.8 km/h 27.8 km/h 68 % 0.0 mm 0.0 W/m2 CLR
01:09 9.6 °C 4.2 °C 1021.2 hPa NW 18.5 km/h 18.5 km/h 69 % 0.0 mm 0.0 W/m2 CLR
01:14 9.6 °C 4.2 °C 1021.2 hPa WNW 20.4 km/h 20.4 km/h 69 % 0.0 mm 0.0 W/m2 CLR
01:19 9.6 °C 4.2 °C 1020.9 hPa WNW 19.3 km/h 19.3 km/h 69 % 0.0 mm 0.0 W/m2 CLR
01:24 9.4 °C 4.1 °C 1020.9 hPa WNW 22.2 km/h 22.2 km/h 69 % 0.0 mm 0.0 W/m2 CLR
01:29 9.4 °C 4.0 °C 1020.9 hPa West 20.4 km/h 20.4 km/h 69 % 0.0 mm 0.0 W/m2 CLR
01:34 9.5 °C 4.1 °C 1020.9 hPa West 22.2 km/h 22.2 km/h 69 % 0.0 mm 0.0 W/m2 CLR
01:39 9.5 °C 4.1 °C 1020.9 hPa WNW 16.7 km/h 16.7 km/h 69 % 0.0 mm 0.0 W/m2 CLR
01:44 9.4 °C 4.1 °C 1020.9 hPa West 20.4 km/h 20.4 km/h 69 % 0.0 mm 0.0 W/m2 CLR
01:49 9.4 °C 4.0 °C 1020.9 hPa West 20.4 km/h 20.4 km/h 69 % 0.0 mm 0.0 W/m2 CLR
01:54 9.4 °C 4.0 °C 1020.9 hPa WNW 18.5 km/h 18.5 km/h 69 % 0.0 mm 0.0 W/m2 CLR
01:59 9.4 °C 4.1 °C 1020.9 hPa West 19.3 km/h 19.3 km/h 69 % 0.0 mm 0.0 W/m2 CLR
02:04 9.5 °C 4.1 °C 1020.9 hPa West 20.4 km/h 20.4 km/h 69 % 0.0 mm 0.0 W/m2 CLR
02:10 9.4 °C 4.0 °C 1020.9 hPa West 20.4 km/h 20.4 km/h 69 % 0.0 mm 0.0 W/m2 CLR
02:15 9.3 °C 3.9 °C 1020.9 hPa West 14.8 km/h 14.8 km/h 69 % 0.0 mm 0.0 W/m2 CLR
02:20 9.2 °C 4.1 °C 1020.9 hPa West 27.8 km/h 27.8 km/h 70 % 0.0 mm 0.0 W/m2 CLR
02:25 9.2 °C 4.1 °C 1020.5 hPa West 24.1 km/h 24.1 km/h 70 % 0.0 mm 0.0 W/m2 CLR
02:30 9.2 °C 4.0 °C 1020.5 hPa WNW 24.1 km/h 24.1 km/h 70 % 0.0 mm 0.0 W/m2 CLR
02:35 9.1 °C 3.9 °C 1020.5 hPa WNW 19.3 km/h 19.3 km/h 70 % 0.0 mm 0.0 W/m2 CLR
02:40 9.1 °C 4.1 °C 1020.5 hPa WNW 20.4 km/h 20.4 km/h 71 % 0.0 mm 0.0 W/m2 CLR
02:45 9.1 °C 4.1 °C 1020.5 hPa West 27.8 km/h 27.8 km/h 71 % 0.0 mm 0.0 W/m2 CLR
02:50 9.1 °C 4.1 °C 1020.5 hPa West 24.1 km/h 24.1 km/h 71 % 0.0 mm 0.0 W/m2 CLR
02:55 9.1 °C 4.1 °C 1020.2 hPa WNW 31.5 km/h 31.5 km/h 71 % 0.0 mm 0.0 W/m2 CLR
03:00 9.2 °C 4.1 °C 1020.5 hPa WNW 29.0 km/h 29.0 km/h 70 % 0.0 mm 0.0 W/m2 CLR
03:05 9.2 °C 4.1 °C 1020.5 hPa WNW 22.2 km/h 22.2 km/h 70 % 0.0 mm 0.0 W/m2 CLR
03:10 9.1 °C 4.1 °C 1020.5 hPa WNW 24.1 km/h 24.1 km/h 71 % 0.0 mm 0.0 W/m2 CLR
03:15 9.1 °C 4.1 °C 1020.5 hPa WNW 25.9 km/h 25.9 km/h 71 % 0.0 mm 0.0 W/m2 CLR
03:20 9.1 °C 4.1 °C 1020.5 hPa West 22.2 km/h 22.2 km/h 71 % 0.0 mm 0.0 W/m2 CLR
03:25 9.1 °C 4.1 °C 1020.2 hPa West 25.9 km/h 25.9 km/h 71 % 0.0 mm 0.0 W/m2 CLR
03:30 9.0 °C 4.0 °C 1020.2 hPa WNW 25.9 km/h 25.9 km/h 71 % 0.0 mm 0.0 W/m2 CLR
03:35 8.9 °C 3.9 °C 1020.2 hPa WNW 22.2 km/h 22.2 km/h 71 % 0.0 mm 0.0 W/m2 CLR
03:40 8.9 °C 3.9 °C 1020.2 hPa West 20.9 km/h 20.9 km/h 71 % 0.0 mm 0.0 W/m2 CLR
03:45 8.8 °C 4.1 °C 1020.2 hPa WNW 25.9 km/h 25.9 km/h 72 % 0.0 mm 0.0 W/m2 CLR
03:50 8.8 °C 4.0 °C 1020.2 hPa WNW 20.4 km/h 20.4 km/h 72 % 0.0 mm 0.0 W/m2 CLR
03:55 8.7 °C 3.9 °C 1020.2 hPa WNW 27.8 km/h 27.8 km/h 72 % 0.0 mm 0.0 W/m2 CLR
04:00 8.7 °C 3.9 °C 1020.2 hPa WNW 20.4 km/h 20.4 km/h 72 % 0.0 mm 0.0 W/m2 CLR
04:05 8.7 °C 3.9 °C 1019.9 hPa NW 20.4 km/h 20.4 km/h 72 % 0.0 mm 0.0 W/m2 CLR
04:10 8.6 °C 3.8 °C 1019.9 hPa WNW 19.3 km/h 19.3 km/h 72 % 0.0 mm 0.0 W/m2 CLR
04:15 8.6 °C 4.0 °C 1019.9 hPa NW 24.1 km/h 24.1 km/h 73 % 0.0 mm 0.0 W/m2 CLR
04:20 8.7 °C 3.9 °C 1019.9 hPa West 20.4 km/h 20.4 km/h 72 % 0.0 mm 0.0 W/m2 CLR
04:25 8.7 °C 3.9 °C 1019.9 hPa WNW 22.5 km/h 22.5 km/h 72 % 0.0 mm 0.0 W/m2 CLR
04:30 8.7 °C 3.9 °C 1019.9 hPa NW 24.1 km/h 24.1 km/h 72 % 0.0 mm 0.0 W/m2 CLR
04:35 8.7 °C 3.9 °C 1019.9 hPa NW 20.4 km/h 20.4 km/h 72 % 0.0 mm 0.0 W/m2 CLR
04:40 8.7 °C 3.9 °C 1019.9 hPa WNW 24.1 km/h 24.1 km/h 72 % 0.0 mm 0.0 W/m2 CLR
04:45 8.8 °C 3.8 °C 1019.5 hPa WNW 20.4 km/h 20.4 km/h 71 % 0.0 mm 0.0 W/m2 CLR
04:50 8.9 °C 3.9 °C 1019.5 hPa NW 38.9 km/h 38.9 km/h 71 % 0.0 mm 0.0 W/m2 CLR
04:55 8.8 °C 3.8 °C 1019.5 hPa WNW 24.1 km/h 24.1 km/h 71 % 0.0 mm 0.0 W/m2 CLR
05:00 8.8 °C 3.8 °C 1019.5 hPa West 25.9 km/h 25.9 km/h 71 % 0.0 mm 0.0 W/m2 CLR
05:05 8.9 °C 3.7 °C 1019.5 hPa WNW 31.5 km/h 31.5 km/h 70 % 0.0 mm 0.0 W/m2 CLR
05:10 8.9 °C 3.9 °C 1019.5 hPa WNW 27.8 km/h 27.8 km/h 71 % 0.0 mm 0.0 W/m2 CLR
05:15 8.9 °C 3.7 °C 1019.5 hPa WNW 33.3 km/h 33.3 km/h 70 % 0.0 mm 0.0 W/m2 CLR
05:20 8.8 °C 3.7 °C 1019.5 hPa NNW 27.8 km/h 27.8 km/h 70 % 0.0 mm 0.0 W/m2 CLR
05:25 8.8 °C 3.8 °C 1019.9 hPa NW 29.6 km/h 29.6 km/h 71 % 0.0 mm 0.0 W/m2 CLR
05:30 8.8 °C 3.8 °C 1019.5 hPa WNW 37.0 km/h 37.0 km/h 71 % 0.0 mm 0.0 W/m2 CLR
05:35 8.8 °C 3.8 °C 1019.5 hPa WNW 25.9 km/h 25.9 km/h 71 % 0.0 mm 0.0 W/m2 CLR
05:40 8.9 °C 3.7 °C 1019.5 hPa WNW 37.0 km/h 37.0 km/h 70 % 0.0 mm 0.0 W/m2 CLR
05:45 8.9 °C 3.8 °C 1019.5 hPa WNW 33.8 km/h 33.8 km/h 70 % 0.0 mm 0.0 W/m2 CLR
05:50 8.9 °C 3.8 °C 1019.9 hPa WNW 27.8 km/h 27.8 km/h 70 % 0.0 mm 0.0 W/m2 CLR
05:55 8.9 °C 3.7 °C 1019.9 hPa NW 33.3 km/h 33.3 km/h 70 % 0.0 mm 0.0 W/m2 CLR
06:00 8.9 °C 3.7 °C 1019.9 hPa WNW 27.8 km/h 27.8 km/h 70 % 0.0 mm 0.0 W/m2 CLR
06:05 8.8 °C 3.7 °C 1019.9 hPa WNW 27.8 km/h 27.8 km/h 70 % 0.0 mm 0.0 W/m2 CLR
06:10 8.9 °C 3.7 °C 1019.9 hPa WNW 31.5 km/h 31.5 km/h 70 % 0.0 mm 0.0 W/m2 CLR
06:15 8.8 °C 3.7 °C 1019.9 hPa WNW 29.6 km/h 29.6 km/h 70 % 0.0 mm 0.0 W/m2 CLR
06:20 8.8 °C 3.6 °C 1019.5 hPa West 25.9 km/h 25.9 km/h 70 % 0.0 mm 0.0 W/m2 CLR
06:25 8.7 °C 3.6 °C 1019.5 hPa WNW 29.6 km/h 29.6 km/h 70 % 0.0 mm 0.0 W/m2 CLR
06:30 8.9 °C 3.7 °C 1019.5 hPa WNW 40.7 km/h 40.7 km/h 70 % 0.0 mm 0.0 W/m2 CLR
06:35 8.8 °C 3.7 °C 1019.5 hPa WNW 33.3 km/h 33.3 km/h 70 % 0.0 mm 0.0 W/m2 CLR
06:40 8.8 °C 3.6 °C 1019.5 hPa West 38.9 km/h 38.9 km/h 70 % 0.0 mm 0.0 W/m2 CLR
06:45 8.8 °C 3.6 °C 1019.5 hPa NW 29.6 km/h 29.6 km/h 70 % 0.0 mm 0.0 W/m2 CLR
06:50 8.7 °C 3.7 °C 1019.5 hPa WNW 33.3 km/h 33.3 km/h 71 % 0.0 mm 0.0 W/m2 CLR
06:55 8.6 °C 3.6 °C 1019.5 hPa NW 37.0 km/h 37.0 km/h 71 % 0.0 mm 0.0 W/m2 CLR
07:00 8.6 °C 3.6 °C 1019.9 hPa NW 33.3 km/h 33.3 km/h 71 % 0.0 mm 0.0 W/m2 CLR
07:05 8.5 °C 3.6 °C 1019.5 hPa WNW 31.5 km/h 31.5 km/h 71 % 0.0 mm 0.0 W/m2 CLR
07:10 8.5 °C 3.6 °C 1019.5 hPa NW 38.9 km/h 38.9 km/h 71 % 0.0 mm 0.0 W/m2 CLR
07:15 8.5 °C 3.6 °C 1019.5 hPa WNW 29.0 km/h 29.0 km/h 71 % 0.0 mm 0.0 W/m2 CLR
07:20 8.4 °C 3.6 °C 1019.9 hPa NW 31.5 km/h 31.5 km/h 72 % 0.0 mm 0.0 W/m2 CLR
07:26 8.5 °C 3.7 °C 1019.9 hPa NW 40.7 km/h 40.7 km/h 72 % 0.0 mm 0.0 W/m2 CLR
07:31 8.5 °C 3.7 °C 1019.5 hPa NW 31.5 km/h 31.5 km/h 72 % 0.0 mm 0.0 W/m2 CLR
07:36 8.6 °C 3.6 °C 1019.9 hPa WNW 33.8 km/h 33.8 km/h 71 % 0.0 mm 0.0 W/m2 OVC
07:41 8.6 °C 3.7 °C 1019.9 hPa WNW 38.9 km/h 38.9 km/h 71 % 0.0 mm 0.0 W/m2 OVC
07:46 8.7 °C 3.7 °C 1019.5 hPa West 46.3 km/h 46.3 km/h 71 % 0.0 mm 5.0 W/m2 OVC
07:51 8.7 °C 3.7 °C 1019.5 hPa WNW 46.3 km/h 46.3 km/h 71 % 0.0 mm 7.0 W/m2 BKN
07:56 8.7 °C 3.8 °C 1019.5 hPa WNW 41.8 km/h 41.8 km/h 71 % 0.0 mm 11.0 W/m2 BKN
08:01 8.8 °C 3.8 °C 1019.9 hPa NW 38.9 km/h 38.9 km/h 71 % 0.0 mm 12.0 W/m2 BKN
08:06 8.7 °C 3.8 °C 1019.9 hPa WNW 40.7 km/h 40.7 km/h 71 % 0.0 mm 14.0 W/m2 BKN
22:09 11.7 °C 3.7 °C 1021.9 hPa WNW 57.9 km/h 57.9 km/h 58 % 0.0 mm 0.0 W/m2 CLR
22:14 11.6 °C 3.8 °C 1021.9 hPa West 22.2 km/h 22.2 km/h 59 % 0.0 mm 0.0 W/m2 CLR
22:19 11.6 °C 3.8 °C 1021.9 hPa West 20.4 km/h 20.4 km/h 59 % 0.0 mm 0.0 W/m2 CLR
22:24 11.5 °C 3.8 °C 1021.9 hPa West 27.8 km/h 27.8 km/h 59 % 0.0 mm 0.0 W/m2 CLR
22:29 11.4 °C 3.9 °C 1022.2 hPa NW 22.2 km/h 22.2 km/h 60 % 0.0 mm 0.0 W/m2 CLR
22:34 11.3 °C 3.8 °C 1021.9 hPa WNW 18.5 km/h 18.5 km/h 60 % 0.0 mm 0.0 W/m2 CLR
22:39 11.3 °C 3.8 °C 1022.2 hPa West 31.5 km/h 31.5 km/h 60 % 0.0 mm 0.0 W/m2 CLR
22:44 11.3 °C 3.8 °C 1022.2 hPa WNW 20.9 km/h 20.9 km/h 60 % 0.0 mm 0.0 W/m2 CLR
22:49 11.2 °C 3.7 °C 1022.2 hPa WNW 18.5 km/h 18.5 km/h 60 % 0.0 mm 0.0 W/m2 CLR
22:54 11.1 °C 3.9 °C 1022.2 hPa West 24.1 km/h 24.1 km/h 61 % 0.0 mm 0.0 W/m2 CLR
22:59 11.1 °C 3.8 °C 1022.6 hPa WNW 25.9 km/h 25.9 km/h 61 % 0.0 mm 0.0 W/m2 CLR
23:04 11.0 °C 3.8 °C 1022.6 hPa West 20.4 km/h 20.4 km/h 61 % 0.0 mm 0.0 W/m2 CLR
23:09 10.9 °C 3.7 °C 1022.6 hPa WNW 24.1 km/h 24.1 km/h 61 % 0.0 mm 0.0 W/m2 CLR
23:14 10.8 °C 3.6 °C 1022.6 hPa West 27.8 km/h 27.8 km/h 61 % 0.0 mm 0.0 W/m2 CLR
23:19 10.7 °C 3.7 °C 1022.6 hPa WNW 29.6 km/h 29.6 km/h 62 % 0.0 mm 0.0 W/m2 CLR
23:25 10.6 °C 3.8 °C 1022.6 hPa West 22.2 km/h 22.2 km/h 63 % 0.0 mm 0.0 W/m2 CLR
23:30 10.5 °C 3.7 °C 1022.9 hPa West 19.3 km/h 19.3 km/h 63 % 0.0 mm 0.0 W/m2 CLR
23:34 10.5 °C 3.7 °C 1022.9 hPa WSW 24.1 km/h 24.1 km/h 63 % 0.0 mm 0.0 W/m2 CLR
23:40 10.4 °C 3.7 °C 1022.9 hPa WSW 22.2 km/h 22.2 km/h 63 % 0.0 mm 0.0 W/m2 CLR
23:45 10.4 °C 3.9 °C 1022.9 hPa West 22.2 km/h 22.2 km/h 64 % 0.0 mm 0.0 W/m2 CLR
23:50 10.3 °C 3.8 °C 1022.9 hPa West 22.2 km/h 22.2 km/h 64 % 0.0 mm 0.0 W/m2 CLR
23:55 10.3 °C 3.8 °C 1022.9 hPa West 27.8 km/h 27.8 km/h 64 % 0.0 mm 0.0 W/m2 CLR
Lo Temps de Massalio
Compliments of Weather Underground - 768 kb